createdAt,value
2023-03-31T00:01:08.998Z,9.50
2023-03-31T00:03:39.236Z,11.95
2023-03-31T00:06:07.388Z,10.68
2023-03-31T00:08:35.903Z,21.42
2023-03-31T00:11:05.003Z,12.50
2023-03-31T00:13:32.569Z,9.13
2023-03-31T00:16:05.206Z,9.52
2023-03-31T00:18:33.120Z,9.63
2023-03-31T00:21:08.473Z,6.80
2023-03-31T00:23:36.104Z,10.40
2023-03-31T00:26:03.976Z,9.32
2023-03-31T00:28:31.839Z,16.98
2023-03-31T00:31:03.615Z,11.32
2023-03-31T00:33:31.457Z,11.82
2023-03-31T00:36:02.462Z,16.23
2023-03-31T00:38:30.738Z,8.40
2023-03-31T00:40:58.282Z,8.63
2023-03-31T00:43:29.497Z,18.42
2023-03-31T00:46:01.949Z,8.73
2023-03-31T00:48:29.652Z,19.67
2023-03-31T00:50:58.709Z,10.23
2023-03-31T00:53:30.811Z,12.02
2023-03-31T00:56:00.355Z,6.80
2023-03-31T00:58:28.398Z,11.70
2023-03-31T01:00:58.410Z,11.80
2023-03-31T01:05:59.231Z,13.77
2023-03-31T01:08:28.404Z,9.10
2023-03-31T01:10:57.768Z,10.93
2023-03-31T01:13:26.591Z,10.80
2023-03-31T01:15:54.785Z,14.05
2023-03-31T01:18:22.725Z,9.07
2023-03-31T01:20:56.474Z,10.57
2023-03-31T01:23:26.993Z,9.15
2023-03-31T01:26:01.501Z,9.45
2023-03-31T01:28:38.162Z,12.27
2023-03-31T01:31:14.981Z,10.52
2023-03-31T01:33:57.914Z,13.02
2023-03-31T01:36:25.453Z,11.15
2023-03-31T01:38:52.862Z,10.25
2023-03-31T01:41:40.199Z,8.55
2023-03-31T01:44:12.499Z,14.43
2023-03-31T01:46:48.278Z,11.05
2023-03-31T01:49:23.725Z,9.90
2023-03-31T01:51:54.030Z,12.15
2023-03-31T01:54:22.208Z,11.63
2023-03-31T01:56:53.481Z,9.80
2023-03-31T01:59:39.718Z,11.35
2023-03-31T02:02:09.391Z,8.10
2023-03-31T02:04:39.966Z,10.48
2023-03-31T02:07:10.154Z,9.75
2023-03-31T02:09:41.490Z,21.65
2023-03-31T02:12:10.881Z,15.02
2023-03-31T02:14:41.132Z,11.07
2023-03-31T02:17:08.889Z,13.32
2023-03-31T02:19:39.753Z,16.45
2023-03-31T02:22:09.031Z,9.68
2023-03-31T02:24:37.593Z,16.50
2023-03-31T02:27:23.224Z,11.05
2023-03-31T02:29:51.140Z,12.43
2023-03-31T02:32:32.541Z,13.82
2023-03-31T02:35:00.911Z,13.57
2023-03-31T02:37:29.369Z,12.48
2023-03-31T02:39:59.095Z,9.57
2023-03-31T02:42:26.594Z,11.10
2023-03-31T02:44:54.144Z,9.85
2023-03-31T02:47:23.127Z,9.90
2023-03-31T02:49:53.689Z,14.57
2023-03-31T02:52:39.978Z,29.27
2023-03-31T02:55:10.998Z,15.70
2023-03-31T02:57:44.493Z,26.67
2023-03-31T03:00:25.037Z,13.10
2023-03-31T03:03:11.854Z,10.55
2023-03-31T03:05:39.431Z,5.65
2023-03-31T03:08:15.505Z,21.77
2023-03-31T03:10:53.398Z,14.38
2023-03-31T03:13:24.135Z,14.95
2023-03-31T03:15:51.697Z,9.68
2023-03-31T03:18:19.139Z,15.90
2023-03-31T03:20:49.378Z,15.00
2023-03-31T03:23:17.172Z,12.10
2023-03-31T03:25:45.135Z,12.95
2023-03-31T03:28:12.671Z,13.00
2023-03-31T03:30:40.441Z,12.55
2023-03-31T03:33:08.260Z,13.13
2023-03-31T03:35:35.786Z,10.55
2023-03-31T03:38:03.515Z,11.73
2023-03-31T03:40:31.084Z,18.20
2023-03-31T03:42:58.562Z,20.52
2023-03-31T03:45:26.160Z,12.57
2023-03-31T03:47:53.736Z,10.70
2023-03-31T03:50:21.530Z,15.30
2023-03-31T03:52:50.113Z,14.00
2023-03-31T03:55:18.237Z,10.32
2023-03-31T03:57:46.127Z,15.48
2023-03-31T04:00:13.969Z,17.30
2023-03-31T04:02:41.818Z,21.05
2023-03-31T04:05:09.997Z,8.52
2023-03-31T04:07:37.501Z,16.40
2023-03-31T04:10:05.166Z,20.65
2023-03-31T04:12:34.966Z,27.48
2023-03-31T04:15:02.508Z,19.10
2023-03-31T04:17:34.903Z,16.30
2023-03-31T04:20:05.781Z,16.13
2023-03-31T04:22:40.841Z,18.90
2023-03-31T04:25:10.716Z,7.40
2023-03-31T04:27:38.550Z,13.15
2023-03-31T04:30:06.658Z,17.98
2023-03-31T04:32:36.746Z,17.55
2023-03-31T04:35:05.073Z,17.58
2023-03-31T04:37:34.850Z,23.48
2023-03-31T04:40:09.257Z,13.10
2023-03-31T04:42:37.007Z,16.60
2023-03-31T04:45:04.640Z,19.23
2023-03-31T04:47:32.369Z,24.77
2023-03-31T04:49:59.894Z,20.42
2023-03-31T04:52:27.809Z,15.95
2023-03-31T04:54:59.257Z,18.80
2023-03-31T04:57:26.973Z,16.30
2023-03-31T04:59:54.461Z,16.48
2023-03-31T05:02:25.642Z,15.13
2023-03-31T05:04:53.509Z,24.30
2023-03-31T05:07:21.179Z,14.02
2023-03-31T05:09:48.887Z,22.15
2023-03-31T05:12:16.512Z,14.05
2023-03-31T05:14:44.222Z,19.80
2023-03-31T05:17:12.060Z,33.90
2023-03-31T05:19:39.712Z,21.80
2023-03-31T05:22:07.404Z,22.02
2023-03-31T05:24:35.130Z,18.35
2023-03-31T05:27:02.680Z,20.50
2023-03-31T05:29:31.264Z,19.90
2023-03-31T05:31:59.083Z,16.15
2023-03-31T05:34:26.653Z,20.35
2023-03-31T05:36:54.450Z,47.45
2023-03-31T05:39:22.271Z,34.92
2023-03-31T05:41:49.880Z,42.28
2023-03-31T05:44:17.527Z,31.33
2023-03-31T05:46:45.235Z,39.90
2023-03-31T05:49:12.816Z,27.42
2023-03-31T05:51:40.752Z,43.90
2023-03-31T05:54:09.441Z,38.47
2023-03-31T05:56:37.126Z,32.55
2023-03-31T05:59:05.323Z,29.73
2023-03-31T06:01:33.315Z,47.17
2023-03-31T06:04:01.366Z,40.72
2023-03-31T06:06:28.998Z,36.83
2023-03-31T06:08:56.575Z,33.83
2023-03-31T06:11:24.327Z,59.63
2023-03-31T06:13:51.903Z,38.38
2023-03-31T06:16:20.063Z,45.95
2023-03-31T06:18:47.651Z,38.22
2023-03-31T06:21:16.883Z,49.38
2023-03-31T06:23:44.753Z,40.88
2023-03-31T06:26:13.286Z,32.40
2023-03-31T06:28:40.689Z,34.65
2023-03-31T06:31:09.607Z,21.52
2023-03-31T06:33:37.495Z,49.50
2023-03-31T06:36:05.917Z,42.28
2023-03-31T06:38:34.201Z,44.03
2023-03-31T06:41:01.785Z,22.45
2023-03-31T06:43:29.366Z,26.60
2023-03-31T06:45:57.334Z,28.77
2023-03-31T06:48:27.060Z,34.35
2023-03-31T06:50:55.193Z,37.80
2023-03-31T06:53:23.780Z,27.50
2023-03-31T06:55:51.995Z,30.33
2023-03-31T06:58:19.635Z,42.97
2023-03-31T07:00:47.474Z,24.50
2023-03-31T07:03:18.958Z,43.90
2023-03-31T07:05:53.618Z,27.98
2023-03-31T07:08:21.719Z,50.03
2023-03-31T07:10:49.705Z,45.22
2023-03-31T07:13:18.461Z,23.25
2023-03-31T07:15:48.200Z,29.00
2023-03-31T07:18:16.163Z,46.28
2023-03-31T07:20:44.211Z,31.88
2023-03-31T07:23:11.900Z,20.88
2023-03-31T07:25:39.610Z,31.77
2023-03-31T07:28:07.413Z,42.47
2023-03-31T07:30:35.153Z,58.05
2023-03-31T07:33:02.827Z,33.03
2023-03-31T07:35:31.418Z,32.42
2023-03-31T07:37:59.207Z,33.05
2023-03-31T07:40:28.137Z,39.30
2023-03-31T07:42:55.891Z,50.67
2023-03-31T07:45:24.828Z,29.33
2023-03-31T07:47:53.120Z,50.65
2023-03-31T07:50:21.242Z,56.47
2023-03-31T07:52:49.185Z,88.82
2023-03-31T07:55:16.884Z,25.85
2023-03-31T07:57:46.450Z,55.83
2023-03-31T08:00:14.444Z,62.88
2023-03-31T08:02:45.885Z,34.95
2023-03-31T08:05:18.599Z,44.17
2023-03-31T08:07:48.461Z,41.35
2023-03-31T08:10:20.368Z,28.85
2023-03-31T08:12:48.245Z,24.85
2023-03-31T08:15:16.618Z,48.53
2023-03-31T08:17:44.506Z,42.90
2023-03-31T08:20:13.516Z,46.92
2023-03-31T08:22:41.656Z,40.03
2023-03-31T08:25:09.534Z,26.77
2023-03-31T08:27:38.005Z,59.88
2023-03-31T08:30:06.731Z,31.10
2023-03-31T08:32:35.323Z,35.15
2023-03-31T08:35:02.940Z,64.85
2023-03-31T08:37:31.685Z,49.58
2023-03-31T08:39:59.723Z,41.08
2023-03-31T08:42:34.136Z,67.25
2023-03-31T08:45:07.507Z,59.80
2023-03-31T08:47:36.765Z,72.50
2023-03-31T08:50:08.004Z,58.75
2023-03-31T08:52:39.801Z,49.92
2023-03-31T08:55:18.989Z,34.45
2023-03-31T08:58:06.903Z,112.25
2023-03-31T09:00:41.672Z,26.17
2023-03-31T09:03:19.867Z,28.33
2023-03-31T09:06:00.151Z,26.38
2023-03-31T09:08:33.544Z,40.33
2023-03-31T09:11:05.035Z,58.58
2023-03-31T09:13:35.756Z,42.17
2023-03-31T09:16:16.299Z,31.40
2023-03-31T09:18:47.523Z,34.90
2023-03-31T09:21:24.778Z,27.80
2023-03-31T09:24:10.131Z,33.00
2023-03-31T09:26:49.004Z,33.92
2023-03-31T09:29:24.584Z,35.35
2023-03-31T09:31:52.655Z,48.30
2023-03-31T09:34:29.522Z,40.42
2023-03-31T09:36:57.303Z,32.47
2023-03-31T09:39:24.868Z,35.13
2023-03-31T09:41:54.086Z,46.00
2023-03-31T09:44:33.039Z,32.03
2023-03-31T09:47:03.922Z,28.90
2023-03-31T09:49:35.064Z,38.33
2023-03-31T09:52:27.590Z,29.92
2023-03-31T09:54:56.598Z,42.60
2023-03-31T09:57:31.245Z,38.65
2023-03-31T10:02:35.138Z,35.15
2023-03-31T10:05:03.246Z,56.50
2023-03-31T10:07:31.011Z,36.83
2023-03-31T10:09:58.766Z,36.50
2023-03-31T10:12:30.622Z,34.47
2023-03-31T10:15:17.741Z,48.28
2023-03-31T10:17:54.763Z,53.22
2023-03-31T10:20:35.025Z,32.75
2023-03-31T10:23:16.048Z,48.55
2023-03-31T10:25:44.124Z,43.25
2023-03-31T10:28:16.406Z,51.15
2023-03-31T10:30:48.249Z,37.90
2023-03-31T10:33:23.573Z,46.97
2023-03-31T10:35:55.703Z,36.55
2023-03-31T10:38:27.707Z,72.68
2023-03-31T10:41:00.145Z,39.13
2023-03-31T10:43:29.954Z,34.10
2023-03-31T10:46:00.142Z,43.92
2023-03-31T10:48:32.044Z,37.92
2023-03-31T10:51:07.834Z,47.20
2023-03-31T10:53:45.472Z,46.33
2023-03-31T10:56:20.972Z,55.15
2023-03-31T10:59:05.429Z,42.25
2023-03-31T11:01:45.910Z,54.72
2023-03-31T11:04:22.136Z,42.65
2023-03-31T11:06:58.919Z,33.45
2023-03-31T11:09:38.876Z,65.05
2023-03-31T11:12:18.386Z,46.75
2023-03-31T11:15:04.884Z,61.33
2023-03-31T11:17:51.401Z,36.28
2023-03-31T11:20:25.311Z,58.10
2023-03-31T11:23:05.227Z,43.30
2023-03-31T11:25:36.805Z,46.55
2023-03-31T11:28:12.455Z,47.05
2023-03-31T11:30:48.602Z,51.88
2023-03-31T11:33:27.928Z,44.03
2023-03-31T11:36:08.428Z,50.50
2023-03-31T11:38:55.249Z,38.42
2023-03-31T11:41:44.493Z,66.65
2023-03-31T11:44:13.689Z,57.67
2023-03-31T11:46:48.481Z,42.70
2023-03-31T11:49:18.964Z,84.70
2023-03-31T11:51:56.554Z,45.33
2023-03-31T11:54:45.315Z,77.45
2023-03-31T11:57:20.125Z,80.35
2023-03-31T11:59:51.552Z,37.08
2023-03-31T12:02:20.978Z,47.47
2023-03-31T12:04:53.159Z,54.08
2023-03-31T12:07:41.284Z,40.28
2023-03-31T12:10:16.028Z,34.00
2023-03-31T12:12:46.603Z,38.20
2023-03-31T12:15:31.477Z,47.38
2023-03-31T12:18:11.052Z,42.67
2023-03-31T12:20:42.188Z,67.72
2023-03-31T12:23:14.220Z,25.15
2023-03-31T12:25:47.057Z,44.67
2023-03-31T12:28:15.354Z,32.08
2023-03-31T12:30:48.862Z,27.40
2023-03-31T12:33:28.441Z,21.85
2023-03-31T12:35:56.250Z,64.00
2023-03-31T12:38:38.077Z,128.90
2023-03-31T12:41:18.411Z,84.60
2023-03-31T12:43:52.806Z,104.80
2023-03-31T12:46:26.294Z,94.70
2023-03-31T12:49:06.977Z,34.92
2023-03-31T12:51:48.408Z,37.53
2023-03-31T12:54:22.023Z,35.80
2023-03-31T12:57:02.122Z,31.23
2023-03-31T12:59:42.043Z,36.00
2023-03-31T13:02:16.011Z,27.13
2023-03-31T13:04:44.159Z,65.32
2023-03-31T13:07:28.314Z,103.25
2023-03-31T13:10:00.714Z,75.75
2023-03-31T13:12:31.836Z,62.42
2023-03-31T13:15:00.514Z,57.63
2023-03-31T13:17:32.686Z,40.92
2023-03-31T13:20:38.952Z,34.35
2023-03-31T13:23:08.302Z,27.83
2023-03-31T13:25:35.969Z,32.75
2023-03-31T13:28:26.737Z,88.60
2023-03-31T13:30:55.871Z,91.18
2023-03-31T13:33:32.376Z,92.95
2023-03-31T13:36:14.872Z,85.63
2023-03-31T13:41:10.155Z,87.57
2023-03-31T13:43:46.818Z,20.60
2023-03-31T13:46:15.305Z,23.08
2023-03-31T13:48:55.958Z,35.03
2023-03-31T13:52:03.337Z,37.80
2023-03-31T13:54:49.776Z,41.72
2023-03-31T13:57:35.895Z,32.22
2023-03-31T14:00:09.320Z,27.10
2023-03-31T14:02:55.536Z,27.73
2023-03-31T14:05:39.812Z,36.25
2023-03-31T14:08:12.315Z,41.97
2023-03-31T14:10:41.517Z,31.08
2023-03-31T14:13:13.095Z,34.95
2023-03-31T14:16:00.397Z,28.45
2023-03-31T14:18:29.893Z,26.05
2023-03-31T14:21:03.493Z,36.55
2023-03-31T14:23:31.174Z,40.83
2023-03-31T14:25:59.187Z,27.38
2023-03-31T14:28:44.908Z,28.25
2023-03-31T14:31:35.707Z,37.03
2023-03-31T14:34:03.494Z,90.22
2023-03-31T14:36:31.213Z,76.28
2023-03-31T14:39:03.543Z,95.93
2023-03-31T14:41:31.189Z,67.13
2023-03-31T14:44:01.648Z,134.13
2023-03-31T14:46:32.913Z,89.90
2023-03-31T14:49:07.587Z,72.72
2023-03-31T14:51:36.280Z,77.85
2023-03-31T14:54:04.648Z,109.68
2023-03-31T14:56:36.094Z,109.82
2023-03-31T14:59:04.584Z,98.13
2023-03-31T15:01:40.079Z,85.65
2023-03-31T15:04:19.047Z,113.43
2023-03-31T15:06:48.835Z,105.97
2023-03-31T15:09:28.929Z,124.50
2023-03-31T15:12:04.529Z,53.13
2023-03-31T15:14:34.571Z,100.38
2023-03-31T15:17:02.276Z,45.60
2023-03-31T15:19:35.734Z,43.85
2023-03-31T15:22:11.442Z,27.50
2023-03-31T15:24:39.304Z,77.78
2023-03-31T15:27:09.963Z,41.90
2023-03-31T15:29:39.730Z,39.42
2023-03-31T15:32:12.333Z,46.78
2023-03-31T15:34:40.041Z,61.30
2023-03-31T15:37:08.261Z,34.55
2023-03-31T15:39:37.042Z,35.33
2023-03-31T15:42:09.095Z,37.72
2023-03-31T15:44:54.829Z,58.33
2023-03-31T15:47:25.858Z,28.23
2023-03-31T15:50:04.347Z,48.67
2023-03-31T15:52:36.914Z,20.75
2023-03-31T15:55:24.888Z,42.83
2023-03-31T15:57:52.845Z,37.10
2023-03-31T16:00:32.726Z,29.13
2023-03-31T16:03:02.846Z,21.92
2023-03-31T16:05:37.184Z,20.65
2023-03-31T16:08:15.354Z,27.63
2023-03-31T16:10:45.606Z,15.93
2023-03-31T16:13:17.524Z,20.60
2023-03-31T16:15:48.768Z,19.27
2023-03-31T16:18:18.519Z,24.15
2023-03-31T16:20:50.988Z,22.30
2023-03-31T16:23:21.024Z,25.08
2023-03-31T16:28:21.374Z,35.35
2023-03-31T16:33:18.337Z,21.55
2023-03-31T16:35:51.362Z,15.90
2023-03-31T16:38:19.333Z,26.30
2023-03-31T16:40:52.123Z,15.05
2023-03-31T16:43:24.860Z,23.80
2023-03-31T16:45:55.171Z,13.45
2023-03-31T16:48:23.473Z,12.45
2023-03-31T16:50:53.093Z,16.25
2023-03-31T16:53:39.528Z,29.55
2023-03-31T16:56:09.720Z,18.42
2023-03-31T16:58:38.048Z,16.10
2023-03-31T17:01:09.204Z,13.02
2023-03-31T17:03:38.504Z,16.63
2023-03-31T17:06:07.619Z,19.08
2023-03-31T17:08:35.248Z,13.23
2023-03-31T17:11:03.791Z,12.07
2023-03-31T17:13:32.633Z,13.60
2023-03-31T17:16:13.447Z,14.00
2023-03-31T17:18:45.516Z,16.55
2023-03-31T17:21:15.381Z,27.80
2023-03-31T17:23:43.609Z,22.83
2023-03-31T17:26:15.606Z,26.15
2023-03-31T17:28:43.572Z,21.80
2023-03-31T17:31:20.274Z,28.27
2023-03-31T17:33:48.505Z,15.60
2023-03-31T17:36:16.640Z,28.30
2023-03-31T17:38:45.092Z,10.00
2023-03-31T17:41:13.522Z,32.90
2023-03-31T17:43:41.401Z,13.15
2023-03-31T17:46:13.751Z,19.00
2023-03-31T17:48:41.775Z,10.55
2023-03-31T17:51:13.905Z,18.65
2023-03-31T17:53:42.273Z,13.90
2023-03-31T17:56:12.364Z,12.90
2023-03-31T18:01:08.270Z,12.50
2023-03-31T18:03:36.722Z,16.40
2023-03-31T18:06:05.402Z,11.32
2023-03-31T18:08:33.221Z,14.00
2023-03-31T18:11:01.176Z,10.07
2023-03-31T18:13:29.182Z,11.27
2023-03-31T18:15:57.028Z,13.35
2023-03-31T18:18:26.906Z,17.00
2023-03-31T18:20:54.503Z,12.10
2023-03-31T18:23:22.244Z,23.25
2023-03-31T18:25:49.968Z,20.02
2023-03-31T18:28:20.902Z,18.63
2023-03-31T18:30:49.319Z,11.25
2023-03-31T18:33:17.067Z,10.57
2023-03-31T18:35:45.004Z,8.65
2023-03-31T18:38:12.631Z,11.20
2023-03-31T18:40:43.100Z,18.13
2023-03-31T18:43:11.811Z,9.23
2023-03-31T18:45:39.697Z,11.50
2023-03-31T18:48:07.551Z,9.52
2023-03-31T18:50:35.362Z,15.27
2023-03-31T18:53:03.894Z,9.80
2023-03-31T18:55:31.728Z,10.88
2023-03-31T18:57:59.529Z,9.35
2023-03-31T19:00:27.192Z,9.85
2023-03-31T19:02:55.301Z,9.45
2023-03-31T19:05:23.672Z,8.68
2023-03-31T19:07:51.501Z,9.13
2023-03-31T19:10:19.286Z,10.30
2023-03-31T19:12:48.670Z,7.75
2023-03-31T19:15:16.429Z,10.90
2023-03-31T19:17:44.072Z,14.55
2023-03-31T19:20:17.848Z,11.25
2023-03-31T19:22:46.537Z,15.23
2023-03-31T19:25:14.579Z,5.25
2023-03-31T19:27:42.457Z,14.98
2023-03-31T19:30:20.124Z,12.73
2023-03-31T19:32:48.978Z,8.80
2023-03-31T19:35:17.250Z,11.05
2023-03-31T19:37:45.104Z,6.78
2023-03-31T19:40:13.153Z,9.63
2023-03-31T19:42:42.269Z,14.63
2023-03-31T19:45:10.123Z,9.77
2023-03-31T19:47:38.048Z,12.30
2023-03-31T19:50:07.418Z,11.63
2023-03-31T19:52:35.525Z,15.63
2023-03-31T19:55:03.742Z,9.18
2023-03-31T19:57:31.691Z,8.20
2023-03-31T19:59:59.402Z,8.27
2023-03-31T20:02:27.668Z,8.27
2023-03-31T20:04:55.919Z,11.93
2023-03-31T20:07:23.847Z,7.22
2023-03-31T20:09:51.733Z,11.50
2023-03-31T20:12:19.561Z,8.40
2023-03-31T20:14:47.748Z,12.70
2023-03-31T20:17:15.751Z,8.18
2023-03-31T20:19:43.487Z,10.60
2023-03-31T20:22:11.330Z,11.13
2023-03-31T20:24:38.972Z,9.02
2023-03-31T20:27:09.473Z,8.60
2023-03-31T20:29:37.442Z,8.57
2023-03-31T20:32:06.061Z,9.65
2023-03-31T20:34:34.143Z,9.48
2023-03-31T20:37:04.392Z,9.48
2023-03-31T20:39:32.283Z,9.85
2023-03-31T20:42:00.060Z,9.27
2023-03-31T20:44:27.944Z,8.70
2023-03-31T20:46:56.587Z,15.25
2023-03-31T20:49:24.403Z,10.40
2023-03-31T20:51:52.036Z,9.73
2023-03-31T20:54:20.353Z,8.68
2023-03-31T20:56:47.902Z,22.63
2023-03-31T20:59:16.174Z,10.30
2023-03-31T21:01:45.311Z,8.48
2023-03-31T21:04:13.397Z,9.18
2023-03-31T21:06:42.338Z,9.70
2023-03-31T21:09:11.797Z,8.68
2023-03-31T21:11:40.763Z,8.23
2023-03-31T21:14:09.034Z,8.05
2023-03-31T21:16:36.675Z,15.18
2023-03-31T21:19:07.377Z,10.00
2023-03-31T21:21:36.057Z,14.57
2023-03-31T21:24:04.033Z,9.93
2023-03-31T21:26:31.716Z,9.43
2023-03-31T21:28:59.317Z,7.95
2023-03-31T21:31:27.362Z,9.50
2023-03-31T21:33:57.824Z,9.70
2023-03-31T21:36:27.083Z,13.60
2023-03-31T21:38:55.850Z,11.75
2023-03-31T21:41:28.826Z,10.50
2023-03-31T21:43:56.979Z,12.30
2023-03-31T21:46:28.638Z,10.65
2023-03-31T21:48:56.610Z,19.25
2023-03-31T21:51:25.364Z,11.30
2023-03-31T21:53:55.561Z,11.50
2023-03-31T21:56:24.212Z,13.60
2023-03-31T21:58:52.022Z,10.57
2023-03-31T22:01:19.638Z,8.23
2023-03-31T22:03:48.864Z,8.23
2023-03-31T22:06:16.761Z,18.42
2023-03-31T22:08:44.767Z,10.32
2023-03-31T22:11:12.566Z,8.80
2023-03-31T22:13:40.701Z,8.98
2023-03-31T22:16:20.456Z,12.10
2023-03-31T22:18:50.347Z,9.27
2023-03-31T22:21:24.006Z,13.85
2023-03-31T22:23:52.348Z,14.57
2023-03-31T22:26:20.166Z,12.48
2023-03-31T22:28:47.809Z,12.45
2023-03-31T22:31:15.544Z,14.95
2023-03-31T22:33:43.298Z,14.60
2023-03-31T22:36:11.375Z,12.80
2023-03-31T22:38:39.139Z,12.38
2023-03-31T22:41:07.135Z,13.00
2023-03-31T22:43:34.748Z,11.52
2023-03-31T22:46:10.035Z,12.02
2023-03-31T22:48:37.834Z,11.15
2023-03-31T22:51:06.119Z,11.00
2023-03-31T22:53:34.729Z,9.05
2023-03-31T22:56:07.631Z,11.00
2023-03-31T22:58:35.402Z,10.45
2023-03-31T23:01:03.087Z,9.30
2023-03-31T23:03:30.888Z,10.73
2023-03-31T23:05:58.586Z,12.02
2023-03-31T23:08:26.392Z,13.60
2023-03-31T23:10:58.011Z,8.90
2023-03-31T23:13:26.147Z,11.60
2023-03-31T23:15:53.817Z,21.20
2023-03-31T23:18:22.950Z,8.88
2023-03-31T23:20:50.741Z,9.93
2023-03-31T23:23:18.424Z,13.15
2023-03-31T23:25:46.478Z,11.30
2023-03-31T23:28:14.231Z,9.15
2023-03-31T23:30:41.931Z,12.18
2023-03-31T23:33:09.972Z,12.75
2023-03-31T23:35:37.935Z,12.48
2023-03-31T23:38:05.706Z,12.90
2023-03-31T23:40:33.562Z,11.27
2023-03-31T23:43:01.379Z,10.57
2023-03-31T23:45:29.009Z,12.65
2023-03-31T23:47:57.083Z,11.55
2023-03-31T23:50:24.917Z,6.20
2023-03-31T23:52:53.603Z,11.35
2023-03-31T23:55:21.443Z,11.25
2023-03-31T23:57:49.025Z,9.45
